createdAt,value
2022-07-28T00:02:07.464Z,97468.97
2022-07-28T00:04:36.591Z,97473.63
2022-07-28T00:07:09.919Z,97474.00
2022-07-28T00:12:48.003Z,97476.06
2022-07-28T00:15:16.819Z,97475.56
2022-07-28T00:17:45.496Z,97475.22
2022-07-28T00:20:14.427Z,97482.66
2022-07-28T00:22:45.420Z,97472.00
2022-07-28T00:25:14.275Z,97475.94
2022-07-28T00:27:43.159Z,97478.53
2022-07-28T00:30:13.061Z,97468.69
2022-07-28T00:32:41.836Z,97473.00
2022-07-28T00:35:10.879Z,97470.31
2022-07-28T00:37:41.194Z,97471.44
2022-07-28T00:40:12.838Z,97467.38
2022-07-28T00:42:41.623Z,97476.50
2022-07-28T00:45:10.924Z,97479.41
2022-07-28T00:47:39.328Z,97476.78
2022-07-28T00:50:08.660Z,97476.44
2022-07-28T00:52:37.190Z,97473.59
2022-07-28T00:55:06.573Z,97471.19
2022-07-28T00:57:36.217Z,97474.56
2022-07-28T01:00:06.001Z,97468.56
2022-07-28T01:02:34.684Z,97476.69
2022-07-28T01:05:03.625Z,97474.72
2022-07-28T01:07:36.614Z,97469.09
2022-07-28T01:10:08.555Z,97472.50
2022-07-28T01:12:49.817Z,97469.09
2022-07-28T01:15:23.969Z,97465.94
2022-07-28T01:17:57.622Z,97465.88
2022-07-28T01:20:32.069Z,97457.53
2022-07-28T01:23:10.772Z,97451.56
2022-07-28T01:25:49.349Z,97455.53
2022-07-28T01:28:30.398Z,97457.47
2022-07-28T01:31:04.487Z,97460.41
2022-07-28T01:33:36.101Z,97453.75
2022-07-28T01:36:09.976Z,97458.16
2022-07-28T01:38:39.979Z,97464.56
2022-07-28T01:41:12.533Z,97461.34
2022-07-28T01:43:43.468Z,97461.03
2022-07-28T01:46:14.248Z,97457.78
2022-07-28T01:48:43.791Z,97462.16
2022-07-28T01:51:12.774Z,97455.44
2022-07-28T01:53:41.498Z,97460.28
2022-07-28T01:56:10.293Z,97452.53
2022-07-28T01:58:39.343Z,97455.59
2022-07-28T02:01:08.729Z,97455.53
2022-07-28T02:03:38.882Z,97451.41
2022-07-28T02:06:07.787Z,97447.75
2022-07-28T02:08:39.863Z,97457.88
2022-07-28T02:11:26.671Z,97456.72
2022-07-28T02:13:56.830Z,97459.09
2022-07-28T02:16:26.980Z,97450.63
2022-07-28T02:18:57.431Z,97454.00
2022-07-28T02:57:11.106Z,97447.25
2022-07-28T03:02:44.115Z,97428.53
2022-07-28T03:05:29.944Z,97432.88
2022-07-28T03:07:59.697Z,97437.38
2022-07-28T03:13:39.751Z,97443.31
2022-07-28T03:16:09.164Z,97445.44
2022-07-28T03:18:37.950Z,97452.41
2022-07-28T03:21:10.667Z,97461.94
2022-07-28T03:23:43.216Z,97465.22
2022-07-28T03:26:15.579Z,97459.59
2022-07-28T03:28:46.473Z,97458.97
2022-07-28T03:56:55.277Z,97486.59
2022-07-28T03:59:26.079Z,97494.97
2022-07-28T04:01:56.773Z,97491.78
2022-07-28T04:04:27.297Z,97487.88
2022-07-28T04:06:55.947Z,97483.66
2022-07-28T04:09:24.812Z,97484.16
2022-07-28T04:11:53.678Z,97490.84
2022-07-28T04:14:26.315Z,97497.81
2022-07-28T04:16:58.183Z,97502.28
2022-07-28T04:19:26.777Z,97499.53
2022-07-28T04:21:55.632Z,97499.44
2022-07-28T04:24:24.741Z,97501.84
2022-07-28T04:30:04.979Z,97507.81
2022-07-28T04:32:33.549Z,97507.91
2022-07-28T04:35:01.907Z,97516.69
2022-07-28T04:37:32.511Z,97525.66
2022-07-28T04:40:00.940Z,97521.69
2022-07-28T04:42:29.398Z,97531.50
2022-07-28T04:44:57.547Z,97527.13
2022-07-28T04:47:29.082Z,97516.88
2022-07-28T04:49:57.566Z,97522.44
2022-07-28T04:52:27.090Z,97519.91
2022-07-28T04:54:55.528Z,97527.00
2022-07-28T04:57:23.764Z,97518.53
2022-07-28T04:59:54.383Z,97514.56
2022-07-28T05:02:25.065Z,97519.69
2022-07-28T05:04:54.828Z,97521.00
2022-07-28T05:07:23.311Z,97526.41
2022-07-28T05:09:52.141Z,97525.38
2022-07-28T05:12:20.479Z,97522.00
2022-07-28T05:14:49.054Z,97520.69
2022-07-28T05:17:17.285Z,97532.75
2022-07-28T05:19:45.480Z,97545.19
2022-07-28T05:22:15.105Z,97547.56
2022-07-28T05:24:43.287Z,97548.91
2022-07-28T05:27:12.781Z,97546.31
2022-07-28T05:29:47.452Z,97548.13
2022-07-28T05:32:18.055Z,97548.31
2022-07-28T05:34:46.577Z,97546.34
2022-07-28T05:37:16.364Z,97550.97
2022-07-28T05:39:44.666Z,97547.13
2022-07-28T05:42:12.876Z,97549.28
2022-07-28T05:44:41.053Z,97555.22
2022-07-28T05:47:09.415Z,97554.53
2022-07-28T05:49:38.540Z,97556.38
2022-07-28T05:52:07.416Z,97552.47
2022-07-28T05:54:37.117Z,97554.03
2022-07-28T05:57:05.532Z,97557.69
2022-07-28T05:59:33.673Z,97557.13
2022-07-28T06:02:03.553Z,97559.22
2022-07-28T06:04:32.090Z,97555.50
2022-07-28T06:07:00.593Z,97545.22
2022-07-28T06:09:28.885Z,97548.69
2022-07-28T06:11:58.552Z,97551.16
2022-07-28T06:14:26.848Z,97548.75
2022-07-28T06:16:55.110Z,97552.69
2022-07-28T06:19:23.458Z,97549.78
2022-07-28T06:21:52.519Z,97549.81
2022-07-28T06:24:20.706Z,97543.03
2022-07-28T06:26:49.179Z,97549.16
2022-07-28T06:29:18.866Z,97543.31
2022-07-28T06:31:47.173Z,97536.56
2022-07-28T06:34:15.714Z,97538.09
2022-07-28T06:36:44.231Z,97533.06
2022-07-28T06:39:12.820Z,97531.09
2022-07-28T06:41:44.558Z,97539.63
2022-07-28T06:44:14.380Z,97548.13
2022-07-28T06:46:44.679Z,97536.13
2022-07-28T06:49:13.263Z,97541.91
2022-07-28T06:51:41.844Z,97537.78
2022-07-28T06:54:11.556Z,97538.63
2022-07-28T06:56:40.101Z,97542.44
2022-07-28T06:59:10.381Z,97552.88
2022-07-28T07:01:38.597Z,97548.88
2022-07-28T07:04:09.263Z,97553.81
2022-07-28T07:06:37.622Z,97548.09
2022-07-28T07:09:05.829Z,97549.06
2022-07-28T07:11:34.081Z,97551.56
2022-07-28T07:14:02.779Z,97547.56
2022-07-28T07:16:31.187Z,97546.16
2022-07-28T07:18:59.499Z,97538.97
2022-07-28T07:21:29.165Z,97547.81
2022-07-28T07:23:58.324Z,97544.28
2022-07-28T07:26:26.538Z,97547.09
2022-07-28T07:28:54.715Z,97544.03
2022-07-28T07:31:23.143Z,97547.44
2022-07-28T07:33:51.508Z,97540.81
2022-07-28T07:36:19.784Z,97548.25
2022-07-28T07:38:49.289Z,97549.63
2022-07-28T07:41:18.921Z,97557.72
2022-07-28T07:43:47.869Z,97552.94
2022-07-28T07:46:16.389Z,97545.03
2022-07-28T07:48:44.867Z,97540.19
2022-07-28T07:51:15.559Z,97538.28
2022-07-28T07:53:43.913Z,97554.22
2022-07-28T07:56:14.644Z,97548.09
2022-07-28T07:58:42.851Z,97546.03
2022-07-28T08:01:12.998Z,97552.31
2022-07-28T08:03:41.175Z,97550.78
2022-07-28T08:06:10.371Z,97555.66
2022-07-28T08:08:45.127Z,97548.94
2022-07-28T08:11:18.282Z,97548.94
2022-07-28T08:13:46.480Z,97552.38
2022-07-28T08:16:14.741Z,97551.41
2022-07-28T08:18:44.066Z,97550.22
2022-07-28T08:21:13.171Z,97555.06
2022-07-28T08:23:41.429Z,97554.94
2022-07-28T08:26:09.672Z,97559.00
2022-07-28T08:28:39.371Z,97549.50
2022-07-28T08:31:07.636Z,97542.97
2022-07-28T08:33:53.435Z,97545.09
2022-07-28T08:36:22.549Z,97541.97
2022-07-28T08:38:50.738Z,97547.78
2022-07-28T08:41:34.030Z,97532.00
2022-07-28T08:44:04.900Z,97533.38
2022-07-28T08:46:36.370Z,97535.44
2022-07-28T08:49:08.530Z,97531.53
2022-07-28T08:51:38.569Z,97532.44
2022-07-28T08:54:07.657Z,97535.63
2022-07-28T08:56:37.447Z,97535.13
2022-07-28T08:59:06.943Z,97525.47
2022-07-28T09:01:38.968Z,97528.88
2022-07-28T09:04:09.014Z,97522.53
2022-07-28T09:06:42.074Z,97522.50
2022-07-28T09:09:10.789Z,97528.78
2022-07-28T09:11:39.222Z,97532.31
2022-07-28T09:14:08.765Z,97532.91
2022-07-28T09:16:37.237Z,97534.28
2022-07-28T09:19:05.401Z,97537.84
2022-07-28T09:21:33.761Z,97540.88
2022-07-28T09:24:02.108Z,97536.84
2022-07-28T09:26:30.327Z,97537.22
2022-07-28T09:29:00.729Z,97536.13
2022-07-28T09:31:30.709Z,97535.69
2022-07-28T09:34:04.117Z,97533.88
2022-07-28T09:36:39.091Z,97522.53
2022-07-28T09:39:07.305Z,97526.06
2022-07-28T09:41:47.726Z,97518.34
2022-07-28T09:44:19.575Z,97522.63
2022-07-28T09:46:49.431Z,97513.59
2022-07-28T09:49:18.244Z,97519.69
2022-07-28T09:52:00.840Z,97512.25
2022-07-28T09:54:29.146Z,97513.13
2022-07-28T09:56:57.385Z,97511.00
2022-07-28T09:59:26.390Z,97508.56
2022-07-28T10:02:01.572Z,97507.06
2022-07-28T10:04:32.382Z,97500.13
2022-07-28T10:07:06.737Z,97507.56
2022-07-28T10:09:35.259Z,97501.72
2022-07-28T10:12:17.230Z,97504.31
2022-07-28T10:14:46.355Z,97500.28
2022-07-28T10:17:25.866Z,97502.91
2022-07-28T10:19:55.195Z,97493.63
2022-07-28T10:22:24.643Z,97497.03
2022-07-28T10:24:54.251Z,97487.41
2022-07-28T10:27:24.939Z,97486.00
2022-07-28T10:29:57.240Z,97486.72
2022-07-28T10:32:27.505Z,97477.44
2022-07-28T10:35:02.026Z,97471.56
2022-07-28T10:37:32.517Z,97470.56
2022-07-28T10:40:09.727Z,97471.41
2022-07-28T10:42:40.294Z,97474.47
2022-07-28T10:45:11.063Z,97479.13
2022-07-28T10:47:40.819Z,97473.78
2022-07-28T10:50:10.054Z,97475.22
2022-07-28T10:52:48.207Z,97476.47
2022-07-28T10:55:21.883Z,97462.03
2022-07-28T10:58:01.726Z,97466.50
2022-07-28T11:00:54.462Z,97462.25
2022-07-28T11:03:40.959Z,97460.47
2022-07-28T11:06:26.585Z,97457.09
2022-07-28T11:08:55.301Z,97455.06
2022-07-28T11:11:50.032Z,97449.53
2022-07-28T11:14:37.693Z,97445.63
2022-07-28T11:17:23.927Z,97447.09
2022-07-28T11:20:24.823Z,97444.47
2022-07-28T11:22:47.551Z,97445.53
2022-07-28T11:25:22.201Z,97440.69
2022-07-28T11:28:06.399Z,97441.03
2022-07-28T11:30:54.305Z,97439.84
2022-07-28T11:33:25.096Z,97439.56
2022-07-28T11:35:59.645Z,97443.59
2022-07-28T11:38:28.305Z,97431.09
2022-07-28T11:40:57.408Z,97430.50
2022-07-28T11:43:39.770Z,97435.19
2022-07-28T11:46:33.973Z,97438.50
2022-07-28T11:49:23.344Z,97425.38
2022-07-28T11:52:19.521Z,97428.19
2022-07-28T11:54:54.197Z,97430.97
2022-07-28T11:57:27.338Z,97424.88
2022-07-28T12:00:00.494Z,97421.66
2022-07-28T12:02:33.310Z,97410.59
2022-07-28T12:05:13.913Z,97410.75
2022-07-28T12:07:46.316Z,97409.84
2022-07-28T12:10:52.184Z,97403.50
2022-07-28T12:13:14.981Z,97394.75
2022-07-28T12:15:51.271Z,97395.69
2022-07-28T12:18:19.568Z,97398.75
2022-07-28T12:20:50.027Z,97403.25
2022-07-28T12:23:44.090Z,97397.91
2022-07-28T12:26:31.666Z,97397.75
2022-07-28T12:29:01.079Z,97402.78
2022-07-28T12:31:33.225Z,97392.38
2022-07-28T12:34:01.885Z,97387.06
2022-07-28T12:36:30.543Z,97387.56
2022-07-28T12:39:01.432Z,97392.22
2022-07-28T12:41:33.843Z,97386.88
2022-07-28T12:44:05.561Z,97385.47
2022-07-28T12:46:34.538Z,97380.84
2022-07-28T12:49:03.401Z,97375.00
2022-07-28T12:51:33.249Z,97377.78
2022-07-28T12:54:03.131Z,97372.03
2022-07-28T12:56:31.480Z,97377.03
2022-07-28T12:59:08.315Z,97364.84
2022-07-28T13:01:50.672Z,97368.69
2022-07-28T13:04:38.036Z,97361.78
2022-07-28T13:07:09.730Z,97375.63
2022-07-28T13:09:47.092Z,97372.31
2022-07-28T13:12:18.934Z,97357.16
2022-07-28T13:14:51.960Z,97354.63
2022-07-28T13:17:21.287Z,97348.34
2022-07-28T13:19:50.411Z,97347.81
2022-07-28T13:22:27.805Z,97340.94
2022-07-28T13:24:58.081Z,97351.09
2022-07-28T13:27:26.799Z,97349.44
2022-07-28T13:29:55.726Z,97336.66
2022-07-28T13:32:24.117Z,97338.59
2022-07-28T13:34:52.881Z,97328.59
2022-07-28T13:37:21.197Z,97337.97
2022-07-28T13:39:54.243Z,97328.88
2022-07-28T13:42:24.457Z,97329.00
2022-07-28T13:44:52.761Z,97330.94
2022-07-28T13:47:21.480Z,97321.38
2022-07-28T13:49:49.693Z,97325.84
2022-07-28T13:52:32.781Z,97315.25
2022-07-28T13:55:07.769Z,97324.53
2022-07-28T13:57:38.430Z,97315.00
2022-07-28T14:00:12.377Z,97315.38
2022-07-28T14:02:44.325Z,97312.56
2022-07-28T14:05:13.093Z,97313.78
2022-07-28T14:07:41.275Z,97300.19
2022-07-28T14:10:10.971Z,97300.09
2022-07-28T14:12:46.110Z,97297.16
2022-07-28T14:15:15.429Z,97298.19
2022-07-28T14:17:45.867Z,97293.53
2022-07-28T14:20:15.553Z,97296.47
2022-07-28T14:22:44.421Z,97297.72
2022-07-28T14:25:20.669Z,97293.72
2022-07-28T14:27:51.771Z,97298.19
2022-07-28T14:30:20.732Z,97300.97
2022-07-28T14:32:49.169Z,97294.34
2022-07-28T14:35:17.579Z,97296.91
2022-07-28T14:40:39.178Z,97286.28
2022-07-28T14:43:09.641Z,97284.19
2022-07-28T14:46:02.850Z,97289.56
2022-07-28T14:48:26.750Z,97279.25
2022-07-28T14:50:57.107Z,97277.22
2022-07-28T14:53:27.741Z,97272.28
2022-07-28T14:55:56.582Z,97274.34
2022-07-28T14:58:26.174Z,97279.63
2022-07-28T15:00:54.934Z,97275.25
2022-07-28T15:03:23.173Z,97269.03
2022-07-28T15:05:51.511Z,97266.91
2022-07-28T15:08:19.660Z,97260.00
2022-07-28T15:10:56.211Z,97266.63
2022-07-28T15:13:24.485Z,97267.28
2022-07-28T15:15:54.218Z,97253.94
2022-07-28T15:18:22.415Z,97243.13
2022-07-28T15:20:54.739Z,97245.38
2022-07-28T15:23:23.098Z,97236.81
2022-07-28T15:25:53.241Z,97242.97
2022-07-28T15:28:22.144Z,97253.78
2022-07-28T15:30:52.924Z,97251.06
2022-07-28T15:33:24.130Z,97246.75
2022-07-28T15:35:58.151Z,97246.34
2022-07-28T15:38:29.447Z,97244.44
2022-07-28T15:40:59.945Z,97242.94
2022-07-28T15:43:29.078Z,97239.88
2022-07-28T15:45:57.656Z,97240.00
2022-07-28T15:48:27.339Z,97239.28
2022-07-28T15:50:55.610Z,97245.88
2022-07-28T15:53:23.973Z,97241.34
2022-07-28T15:55:52.465Z,97241.00
2022-07-28T15:58:20.966Z,97248.16
2022-07-28T16:00:49.461Z,97244.63
2022-07-28T16:03:18.179Z,97232.81
2022-07-28T16:05:49.987Z,97243.28
2022-07-28T16:08:22.572Z,97247.06
2022-07-28T16:10:52.690Z,97242.69
2022-07-28T16:13:36.113Z,97243.84
2022-07-28T16:16:07.497Z,97242.16
2022-07-28T16:18:36.596Z,97238.66
2022-07-28T16:21:07.819Z,97234.50
2022-07-28T16:23:36.646Z,97227.38
2022-07-28T16:26:08.033Z,97231.94
2022-07-28T16:28:36.950Z,97222.47
2022-07-28T16:31:05.638Z,97228.72
2022-07-28T16:33:34.286Z,97226.03
2022-07-28T16:36:03.343Z,97217.63
2022-07-28T16:38:33.119Z,97223.66
2022-07-28T16:41:01.440Z,97228.88
2022-07-28T16:43:29.831Z,97225.00
2022-07-28T16:45:58.298Z,97223.06
2022-07-28T16:48:26.563Z,97228.97
2022-07-28T16:50:54.914Z,97229.41
2022-07-28T16:53:23.326Z,97225.25
2022-07-28T16:55:53.072Z,97224.34
2022-07-28T16:58:22.353Z,97221.28
2022-07-28T17:00:51.244Z,97224.28
2022-07-28T17:03:19.524Z,97226.34
2022-07-28T17:05:48.550Z,97223.47
2022-07-28T17:08:16.805Z,97220.34
2022-07-28T17:10:46.097Z,97228.19
2022-07-28T17:13:17.085Z,97224.16
2022-07-28T17:15:45.614Z,97222.38
2022-07-28T17:18:13.953Z,97217.47
2022-07-28T17:20:46.823Z,97225.94
2022-07-28T17:23:15.181Z,97221.25
2022-07-28T17:26:04.924Z,97222.91
2022-07-28T17:28:33.329Z,97230.47
2022-07-28T17:31:01.774Z,97218.16
2022-07-28T17:33:31.308Z,97227.78
2022-07-28T17:36:00.157Z,97225.13
2022-07-28T17:38:32.965Z,97224.84
2022-07-28T17:41:04.126Z,97224.13
2022-07-28T17:43:35.029Z,97218.56
2022-07-28T17:46:08.335Z,97222.28
2022-07-28T17:48:39.110Z,97220.44
2022-07-28T17:51:07.413Z,97220.94
2022-07-28T17:53:39.252Z,97217.88
2022-07-28T17:56:08.910Z,97216.38
2022-07-28T17:58:39.023Z,97220.28
2022-07-28T18:01:12.011Z,97225.78
2022-07-28T18:03:56.871Z,97224.38
2022-07-28T18:06:32.429Z,97222.41
2022-07-28T18:09:06.727Z,97222.75
2022-07-28T18:11:37.825Z,97226.78
2022-07-28T18:14:26.071Z,97243.28
2022-07-28T18:16:54.374Z,97238.94
2022-07-28T18:19:22.739Z,97240.19
2022-07-28T18:21:51.541Z,97244.41
2022-07-28T18:24:22.061Z,97236.69
2022-07-28T18:26:51.491Z,97242.53
2022-07-28T18:29:21.052Z,97242.50
2022-07-28T18:31:52.045Z,97243.34
2022-07-28T18:34:24.265Z,97253.13
2022-07-28T18:36:53.595Z,97251.25
2022-07-28T18:39:22.141Z,97259.94
2022-07-28T18:41:50.449Z,97262.94
2022-07-28T18:44:19.698Z,97267.38
2022-07-28T18:46:49.161Z,97269.84
2022-07-28T18:49:20.129Z,97269.38
2022-07-28T18:51:49.478Z,97274.75
2022-07-28T18:54:27.744Z,97269.72
2022-07-28T18:56:56.528Z,97276.72
2022-07-28T18:59:24.780Z,97281.78
2022-07-28T19:01:53.123Z,97275.53
2022-07-28T19:04:22.778Z,97292.13
2022-07-28T19:06:51.617Z,97298.44
2022-07-28T19:09:19.871Z,97295.94
2022-07-28T19:11:48.170Z,97304.44
2022-07-28T19:14:16.811Z,97302.69
2022-07-28T19:16:45.624Z,97306.31
2022-07-28T19:19:14.467Z,97309.72
2022-07-28T19:21:44.588Z,97321.38
2022-07-28T19:24:14.341Z,97328.69
2022-07-28T19:26:43.772Z,97330.22
2022-07-28T19:29:12.105Z,97326.97
2022-07-28T19:31:41.574Z,97334.09
2022-07-28T19:34:09.949Z,97339.16
2022-07-28T19:36:38.705Z,97341.31
2022-07-28T19:39:08.576Z,97339.50
2022-07-28T19:41:37.279Z,97340.34
2022-07-28T19:44:05.874Z,97341.56
2022-07-28T19:46:34.186Z,97346.66
2022-07-28T19:49:02.535Z,97347.97
2022-07-28T19:51:31.500Z,97347.41
2022-07-28T19:54:00.562Z,97348.03
2022-07-28T19:56:31.435Z,97346.50
2022-07-28T19:59:00.331Z,97347.47
2022-07-28T20:01:28.805Z,97351.09
2022-07-28T20:04:01.128Z,97347.91
2022-07-28T20:06:32.769Z,97361.94
2022-07-28T20:09:01.517Z,97354.47
2022-07-28T20:11:32.986Z,97362.97
2022-07-28T20:14:01.968Z,97354.81
2022-07-28T20:16:30.676Z,97369.91
2022-07-28T20:18:59.574Z,97367.25
2022-07-28T20:21:27.881Z,97369.75
2022-07-28T20:23:57.132Z,97372.13
2022-07-28T20:26:27.031Z,97380.53
2022-07-28T20:28:58.512Z,97373.19
2022-07-28T20:31:26.980Z,97377.69
2022-07-28T20:33:55.882Z,97381.50
2022-07-28T20:36:29.481Z,97378.19
2022-07-28T20:38:58.181Z,97390.88
2022-07-28T20:41:26.575Z,97385.38
2022-07-28T20:44:26.226Z,97391.50
2022-07-28T20:46:44.695Z,97395.13
2022-07-28T20:49:13.206Z,97397.00
2022-07-28T20:51:50.809Z,97389.94
2022-07-28T20:54:21.109Z,97393.53
2022-07-28T20:56:49.571Z,97396.59
2022-07-28T20:59:19.610Z,97397.34
2022-07-28T21:01:48.019Z,97397.97
2022-07-28T21:04:16.928Z,97391.28
2022-07-28T21:06:51.038Z,97389.16
2022-07-28T21:09:21.281Z,97387.25
2022-07-28T21:11:49.578Z,97387.25
2022-07-28T21:14:19.521Z,97384.16
2022-07-28T21:16:48.172Z,97387.56
2022-07-28T21:19:16.505Z,97379.97
2022-07-28T21:21:44.856Z,97386.84
2022-07-28T21:24:13.593Z,97383.47
2022-07-28T21:26:42.760Z,97377.91
2022-07-28T21:32:02.326Z,97374.47
2022-07-28T21:34:34.196Z,97372.66
2022-07-28T21:37:02.928Z,97375.34
2022-07-28T21:39:31.551Z,97373.84
2022-07-28T21:42:00.071Z,97370.91
2022-07-28T21:44:28.469Z,97368.16
2022-07-28T21:46:58.234Z,97367.78
2022-07-28T21:49:28.831Z,97376.06
2022-07-28T21:51:57.195Z,97376.19
2022-07-28T21:54:25.474Z,97372.03
2022-07-28T21:56:53.811Z,97376.81
2022-07-28T21:59:22.288Z,97379.16
2022-07-28T22:01:50.689Z,97379.69
2022-07-28T22:04:20.831Z,97385.16
2022-07-28T22:06:49.322Z,97387.72
2022-07-28T22:09:17.618Z,97382.31
2022-07-28T22:11:45.977Z,97383.63
2022-07-28T22:14:14.656Z,97387.41
2022-07-28T22:16:43.094Z,97387.50
2022-07-28T22:19:12.712Z,97390.75
2022-07-28T22:21:42.319Z,97395.59
2022-07-28T22:24:10.955Z,97392.25
2022-07-28T22:26:39.283Z,97393.13
2022-07-28T22:29:07.619Z,97389.81
2022-07-28T22:31:35.866Z,97390.41
2022-07-28T22:34:04.359Z,97389.50
2022-07-28T22:36:33.997Z,97384.72
2022-07-28T22:39:04.213Z,97380.81
2022-07-28T22:41:32.572Z,97382.22
2022-07-28T22:44:00.809Z,97377.69
2022-07-28T22:46:29.205Z,97378.53
2022-07-28T22:48:57.551Z,97370.16
2022-07-28T22:51:25.836Z,97375.41
2022-07-28T22:53:54.328Z,97372.56
2022-07-28T22:56:24.242Z,97379.81
2022-07-28T22:58:52.540Z,97365.69
2022-07-28T23:01:20.895Z,97370.38
2022-07-28T23:03:49.258Z,97368.94
2022-07-28T23:06:17.533Z,97366.81
2022-07-28T23:08:45.828Z,97380.41
2022-07-28T23:11:14.372Z,97378.53
2022-07-28T23:13:44.157Z,97381.00
2022-07-28T23:16:17.221Z,97378.16
2022-07-28T23:18:46.098Z,97370.56
2022-07-28T23:21:14.262Z,97377.66
2022-07-28T23:23:42.661Z,97381.16
2022-07-28T23:26:10.899Z,97371.81
2022-07-28T23:28:39.409Z,97380.59
2022-07-28T23:31:09.031Z,97380.47
2022-07-28T23:33:54.474Z,97373.97
2022-07-28T23:36:26.434Z,97372.72
2022-07-28T23:38:55.746Z,97367.69
2022-07-28T23:41:24.564Z,97356.59
2022-07-28T23:43:53.098Z,97357.41
2022-07-28T23:46:23.116Z,97358.03
2022-07-28T23:48:52.002Z,97355.97
2022-07-28T23:51:21.343Z,97361.81
2022-07-28T23:53:55.876Z,97358.41
2022-07-28T23:56:24.935Z,97358.19
2022-07-28T23:58:53.271Z,97370.81
